Time;durP1;ratioP1;P1;durP2;ratioP2;P2;SDS_P1;SDS_P2;PMS_P1;PMS_P2;Temp;Humidity;BMP_temperature;BMP_pressure;BME280_temperature;BME280_humidity;BME280_pressure;Samples;Min_cycle;Max_cycle;Signal;HPM_P1;HPM_P2
2021/10/30 00:01:57;;;;;;;;;;;;;;;14.00;60.02;100418.44;4878550;28;98826;-68
2021/10/30 00:04:23;;;;;;;;;;;;;;;13.99;59.87;100416.81;4875441;28;128415;-60
2021/10/30 00:06:49;;;;;;;;;;;;;;;13.99;59.88;100414.13;4884107;28;117376;-60
2021/10/30 00:09:15;;;;;;;;;;;;;;;13.99;59.87;100414.91;4884648;28;128347;-60
2021/10/30 00:11:41;;;;;;;;;;;;;;;14.00;59.98;100418.44;4883540;28;128901;-68
2021/10/30 00:14:07;;;;;;;;;;;;;;;13.97;59.97;100414.38;4867529;28;105670;-67
2021/10/30 00:16:33;;;;;;;;;;;;;;;13.98;59.83;100418.69;4865286;28;118080;-60
2021/10/30 00:18:58;;;;;;;;;;;;;;;13.97;60.11;100417.09;4882516;28;128691;-60
2021/10/30 00:21:24;;;;;;;;;;;;;;;13.97;60.05;100417.09;4884645;28;128194;-69
2021/10/30 00:23:51;;;;;;;;;;;;;;;13.96;59.86;100417.41;4869492;28;124173;-68
2021/10/30 00:26:17;;;;;;;;;;;;;;;13.95;59.88;100418.47;4847808;28;98040;-60
2021/10/30 00:28:43;;;;;;;;;;;;;;;13.95;59.63;100424.72;4858967;28;131512;-60
2021/10/30 00:31:09;;;;;;;;;;;;;;;13.95;59.62;100421.19;4884866;28;98000;-68
2021/10/30 00:33:35;;;;;;;;;;;;;;;13.95;59.84;100421.19;4882904;28;127778;-60
2021/10/30 00:36:01;;;;;;;;;;;;;;;13.94;59.57;100420.38;4884644;28;98246;-60
2021/10/30 00:38:29;;;;;;;;;;;;;;;13.94;59.65;100419.56;4883311;28;127851;-68
2021/10/30 00:40:55;;;;;;;;;;;;;;;13.93;59.64;100421.47;4883591;28;106708;-61
2021/10/30 00:43:21;;;;;;;;;;;;;;;13.93;59.74;100426.91;4882725;28;128485;-59
2021/10/30 00:45:47;;;;;;;;;;;;;;;13.93;59.64;100426.91;4883700;28;98532;-68
2021/10/30 00:48:14;;;;;;;;;;;;;;;13.92;59.75;100422.59;4865987;28;101060;-68
2021/10/30 00:50:41;;;;;;;;;;;;;;;13.92;59.40;100433.44;4881878;28;98544;-68
2021/10/30 00:53:07;;;;;;;;;;;;;;;13.92;59.81;100419.06;4868387;28;121063;-60
2021/10/30 00:55:33;;;;;;;;;;;;;;;13.91;59.52;100415.56;4866198;28;97904;-60
2021/10/30 00:57:59;;;;;;;;;;;;;;;13.91;59.66;100412.84;4860991;28;127227;-60
2021/10/30 01:00:25;;;;;;;;;;;;;;;13.90;59.84;100416.63;4834982;28;128603;-68
2021/10/30 01:02:51;;;;;;;;;;;;;;;13.91;59.72;100417.44;4866315;28;97919;-68
2021/10/30 01:05:18;;;;;;;;;;;;;;;13.89;59.40;100414.22;4847236;28;106952;-60
2021/10/30 01:07:44;;;;;;;;;;;;;;;13.90;59.47;100405.00;4864709;28;98348;-68
2021/10/30 01:10:10;;;;;;;;;;;;;;;13.88;59.86;100408.00;4864957;28;98666;-60
2021/10/30 01:12:36;;;;;;;;;;;;;;;13.90;59.94;100405.00;4868316;28;98425;-60
2021/10/30 01:15:05;;;;;;;;;;;;;;;13.87;59.86;100403.69;4867672;28;107105;-60
2021/10/30 01:17:31;;;;;;;;;;;;;;;13.87;59.75;100398.28;4883690;28;99049;-60
2021/10/30 01:19:57;;;;;;;;;;;;;;;13.86;59.41;100388.50;4863935;28;98703;-59
2021/10/30 01:22:23;;;;;;;;;;;;;;;13.87;59.47;100384.72;4881270;28;97878;-68
2021/10/30 01:24:50;;;;;;;;;;;;;;;13.87;59.78;100394.75;4868372;28;98036;-63
2021/10/30 01:27:19;;;;;;;;;;;;;;;13.84;59.57;100382.59;4883308;28;109314;-60
2021/10/30 01:29:47;;;;;;;;;;;;;;;13.85;59.81;100386.09;4883762;28;99069;-68
2021/10/30 01:32:16;;;;;;;;;;;;;;;13.85;59.75;100386.91;4883916;28;98055;-68
2021/10/30 01:34:42;;;;;;;;;;;;;;;13.85;59.44;100381.50;4866332;28;97876;-60
2021/10/30 01:37:08;;;;;;;;;;;;;;;13.84;59.62;100385.31;4882546;28;127214;-68
2021/10/30 01:39:34;;;;;;;;;;;;;;;13.84;59.66;100369.06;4882390;28;127075;-68
2021/10/30 01:42:00;;;;;;;;;;;;;;;13.84;59.31;100377.19;4870199;28;99064;-68
2021/10/30 01:44:27;;;;;;;;;;;;;;;13.84;59.74;100376.38;4863492;28;98439;-60
2021/10/30 01:47:00;;;;;;;;;;;;;;;13.83;59.51;100367.41;4863888;28;98848;-59
2021/10/30 01:49:26;;;;;;;;;;;;;;;13.83;59.61;100366.63;4864169;28;98026;-68
2021/10/30 01:51:52;;;;;;;;;;;;;;;13.82;59.60;100371.22;4863394;28;97927;-68
2021/10/30 01:54:18;;;;;;;;;;;;;;;13.83;59.52;100363.91;4864984;28;97998;-68
2021/10/30 01:56:44;;;;;;;;;;;;;;;13.82;59.66;100365.00;4863768;28;119394;-68
2021/10/30 01:59:10;;;;;;;;;;;;;;;13.81;59.47;100361.50;4863635;28;128954;-68
2021/10/30 02:01:36;;;;;;;;;;;;;;;13.81;59.62;100353.38;4845862;28;126670;-68
2021/10/30 02:04:02;;;;;;;;;;;;;;;13.82;59.60;100340.63;4863716;28;118703;-68
2021/10/30 02:06:28;;;;;;;;;;;;;;;13.82;59.42;100351.47;4863952;28;98196;-68
2021/10/30 02:08:54;;;;;;;;;;;;;;;13.80;59.32;100351.78;4866563;28;125588;-69
2021/10/30 02:11:20;;;;;;;;;;;;;;;13.80;59.22;100349.06;4849554;28;97956;-60
2021/10/30 02:13:46;;;;;;;;;;;;;;;13.79;59.47;100352.03;4882292;28;97732;-69
2021/10/30 02:16:13;;;;;;;;;;;;;;;13.79;59.16;100352.03;4882682;28;127333;-60
2021/10/30 02:18:40;;;;;;;;;;;;;;;13.78;59.25;100351.25;4882484;28;98185;-60
2021/10/30 02:21:06;;;;;;;;;;;;;;;13.78;59.56;100339.59;4883445;28;98106;-68
2021/10/30 02:23:32;;;;;;;;;;;;;;;13.78;59.49;100334.97;4879874;28;117500;-59
2021/10/30 02:25:58;;;;;;;;;;;;;;;13.78;59.61;100332.28;4881638;28;127071;-68
2021/10/30 02:28:24;;;;;;;;;;;;;;;13.79;59.31;100323.03;4877272;28;116302;-68
2021/10/30 02:30:50;;;;;;;;;;;;;;;13.78;59.62;100329.56;4882073;28;117344;-68
2021/10/30 02:33:16;;;;;;;;;;;;;;;13.78;59.35;100336.88;4881341;28;117386;-68
2021/10/30 02:35:42;;;;;;;;;;;;;;;13.79;59.80;100333.06;4882478;28;98049;-60
2021/10/30 02:38:08;;;;;;;;;;;;;;;13.77;59.32;100332.59;4871633;28;98492;-59
2021/10/30 02:40:34;;;;;;;;;;;;;;;13.77;59.64;100333.38;4863548;28;98040;-68
2021/10/30 02:43:00;;;;;;;;;;;;;;;13.77;59.78;100332.59;4861765;28;97874;-69
2021/10/30 02:45:26;;;;;;;;;;;;;;;13.76;59.49;100326.38;4863231;28;117408;-59
2021/10/30 02:47:52;;;;;;;;;;;;;;;13.76;59.76;100323.66;4863551;28;116285;-60
2021/10/30 02:50:19;;;;;;;;;;;;;;;13.75;59.91;100328.28;4862593;28;125670;-68
2021/10/30 02:52:45;;;;;;;;;;;;;;;13.75;59.92;100328.28;4865384;28;98022;-68
2021/10/30 02:55:11;;;;;;;;;;;;;;;13.76;59.97;100337.19;4877465;28;99869;-59
2021/10/30 02:57:37;;;;;;;;;;;;;;;13.74;59.73;100326.63;4882745;28;98913;-60
2021/10/30 03:00:07;;;;;;;;;;;;;;;13.73;59.89;100322.31;4883029;28;105961;-67
2021/10/30 03:02:32;;;;;;;;;;;;;;;13.73;59.83;100330.44;4879049;28;98014;-68
2021/10/30 03:04:58;;;;;;;;;;;;;;;13.73;59.98;100335.88;4861529;28;128502;-59
2021/10/30 03:07:24;;;;;;;;;;;;;;;13.73;60.27;100337.78;4881470;28;130012;-68
2021/10/30 03:09:51;;;;;;;;;;;;;;;13.72;60.38;100341.59;4883243;28;97721;-59
2021/10/30 03:12:17;;;;;;;;;;;;;;;13.72;60.21;100344.28;4881376;28;98143;-59
2021/10/30 03:14:44;;;;;;;;;;;;;;;13.71;60.22;100348.06;4863255;28;98457;-59
2021/10/30 03:17:10;;;;;;;;;;;;;;;13.70;60.26;100347.28;4882906;28;99129;-66
2021/10/30 03:19:36;;;;;;;;;;;;;;;13.68;60.24;100338.66;4885363;28;116506;-68
2021/10/30 03:22:03;;;;;;;;;;;;;;;13.68;60.32;100343.25;4885822;28;98432;-68
2021/10/30 03:24:28;;;;;;;;;;;;;;;13.67;60.44;100342.44;4875462;28;98709;-68
2021/10/30 03:26:54;;;;;;;;;;;;;;;13.67;60.59;100339.72;4865876;28;128607;-68
2021/10/30 03:29:20;;;;;;;;;;;;;;;13.67;60.23;100336.22;4848396;28;127477;-60
2021/10/30 03:31:46;;;;;;;;;;;;;;;13.66;60.66;100343.53;4865726;28;118524;-59
2021/10/30 03:34:12;;;;;;;;;;;;;;;13.65;60.39;100339.22;4865300;28;127909;-60
2021/10/30 03:36:39;;;;;;;;;;;;;;;13.65;60.51;100344.63;4865341;28;128271;-68
2021/10/30 03:39:05;;;;;;;;;;;;;;;13.64;60.39;100353.06;4866444;28;98322;-60
2021/10/30 03:41:31;;;;;;;;;;;;;;;13.64;60.39;100348.44;4865636;28;107021;-68
2021/10/30 03:43:57;;;;;;;;;;;;;;;13.64;60.70;100353.06;4866068;28;98956;-59
2021/10/30 03:46:22;;;;;;;;;;;;;;;13.63;60.63;100354.94;4865019;28;99184;-61
2021/10/30 03:48:48;;;;;;;;;;;;;;;13.62;60.62;100353.34;4865331;28;126819;-67
2021/10/30 03:51:14;;;;;;;;;;;;;;;13.63;60.69;100354.16;4865567;28;117947;-68
2021/10/30 03:53:40;;;;;;;;;;;;;;;13.62;60.75;100353.34;4865164;28;128063;-60
2021/10/30 03:56:06;;;;;;;;;;;;;;;13.61;60.83;100351.72;4866502;28;98311;-68
2021/10/30 03:58:34;;;;;;;;;;;;;;;13.61;60.56;100356.34;4847830;28;127823;-68
2021/10/30 04:00:59;;;;;;;;;;;;;;;13.61;60.94;100345.50;4849091;28;97915;-68
2021/10/30 04:03:25;;;;;;;;;;;;;;;13.59;60.69;100358.53;4864503;28;128788;-68
2021/10/30 04:05:51;;;;;;;;;;;;;;;13.56;61.02;100340.97;4864355;28;127346;-68
2021/10/30 04:08:19;;;;;;;;;;;;;;;13.57;60.85;100348.00;4864874;28;126599;-68
2021/10/30 04:10:46;;;;;;;;;;;;;;;13.57;60.91;100349.91;4848680;28;97979;-60
2021/10/30 04:13:12;;;;;;;;;;;;;;;13.55;60.91;100342.03;4865753;28;98519;-68
2021/10/30 04:15:38;;;;;;;;;;;;;;;13.52;60.89;100345.34;4865736;28;102118;-59
2021/10/30 04:18:04;;;;;;;;;;;;;;;13.53;60.90;100340.75;4865587;28;99322;-59
2021/10/30 04:20:30;;;;;;;;;;;;;;;13.49;61.05;100349.44;4864360;28;117554;-60
2021/10/30 04:22:55;;;;;;;;;;;;;;;13.49;60.96;100340.50;4864904;28;126505;-60
2021/10/30 04:25:21;;;;;;;;;;;;;;;13.47;60.85;100342.69;4864023;28;123642;-61
2021/10/30 04:27:47;;;;;;;;;;;;;;;13.45;61.29;100332.16;4868475;28;126546;-69
2021/10/30 04:30:16;;;;;;;;;;;;;;;13.43;61.15;100337.03;4869479;28;112404;-60
2021/10/30 04:32:43;;;;;;;;;;;;;;;13.41;61.36;100325.72;4866442;28;113382;-60
2021/10/30 04:35:10;;;;;;;;;;;;;;;13.41;61.19;100327.63;4884790;28;98327;-68
2021/10/30 04:37:36;;;;;;;;;;;;;;;13.38;61.39;100329.00;4884506;28;99078;-60
2021/10/30 04:40:02;;;;;;;;;;;;;;;13.37;61.44;100327.38;4883582;28;116869;-60
2021/10/30 04:42:28;;;;;;;;;;;;;;;13.36;61.44;100324.94;4863233;28;98371;-68
2021/10/30 04:44:54;;;;;;;;;;;;;;;13.34;61.22;100321.75;4864306;28;128265;-60
2021/10/30 04:47:19;;;;;;;;;;;;;;;13.33;61.52;100317.44;4865117;28;98155;-68
2021/10/30 04:49:46;;;;;;;;;;;;;;;13.31;61.33;100323.13;4866106;28;97874;-68
2021/10/30 04:52:12;;;;;;;;;;;;;;;13.29;61.39;100317.19;4847496;28;97846;-60
2021/10/30 04:54:38;;;;;;;;;;;;;;;13.27;61.26;100319.38;4883096;28;127974;-60
2021/10/30 04:57:04;;;;;;;;;;;;;;;13.25;61.45;100313.47;4883673;28;114926;-60
2021/10/30 04:59:30;;;;;;;;;;;;;;;13.24;61.26;100314.53;4853573;28;108905;-68
2021/10/30 05:01:56;;;;;;;;;;;;;;;13.20;61.23;100311.59;4865088;28;98385;-60
2021/10/30 05:04:22;;;;;;;;;;;;;;;13.18;61.28;100302.94;4831412;28;103793;-60
2021/10/30 05:06:48;;;;;;;;;;;;;;;13.18;61.38;100299.44;4846724;28;127287;-68
2021/10/30 05:09:14;;;;;;;;;;;;;;;13.15;61.57;100298.09;4848641;28;97828;-60
2021/10/30 05:11:40;;;;;;;;;;;;;;;13.14;61.40;100295.69;4846781;28;117302;-65
2021/10/30 05:14:06;;;;;;;;;;;;;;;13.12;61.49;100287.03;4865254;28;110099;-68
2021/10/30 05:16:32;;;;;;;;;;;;;;;13.09;61.46;100288.44;4876508;28;120974;-60
2021/10/30 05:18:58;;;;;;;;;;;;;;;13.05;61.44;100282.00;4885046;28;97733;-68
2021/10/30 05:21:24;;;;;;;;;;;;;;;13.05;61.39;100278.47;4883505;28;126398;-68
2021/10/30 05:23:50;;;;;;;;;;;;;;;13.01;61.35;100279.06;4869420;28;98861;-60
2021/10/30 05:26:16;;;;;;;;;;;;;;;12.97;61.53;100280.72;4864681;28;127849;-60
2021/10/30 05:28:42;;;;;;;;;;;;;;;12.95;61.56;100280.19;4882274;28;117685;-60
2021/10/30 05:31:08;;;;;;;;;;;;;;;12.94;61.36;100277.78;4864181;28;98711;-60
2021/10/30 05:33:34;;;;;;;;;;;;;;;12.91;61.69;100281.84;4846448;28;98537;-60
2021/10/30 05:36:00;;;;;;;;;;;;;;;12.90;61.46;100292.97;4863934;28;98539;-60
2021/10/30 05:38:26;;;;;;;;;;;;;;;12.87;61.38;100288.13;4865698;28;98291;-60
2021/10/30 05:40:52;;;;;;;;;;;;;;;12.85;61.45;100276.78;4861103;28;128193;-60
2021/10/30 05:43:18;;;;;;;;;;;;;;;12.83;61.38;100279.78;4864407;28;126077;-60
2021/10/30 05:45:45;;;;;;;;;;;;;;;12.83;61.41;100284.41;4875547;28;121313;-60
2021/10/30 05:48:13;;;;;;;;;;;;;;;12.80;61.54;100283.06;4893409;28;97864;-60
2021/10/30 05:50:39;;;;;;;;;;;;;;;12.79;61.45;100284.16;4898945;28;98563;-60
2021/10/30 05:53:07;;;;;;;;;;;;;;;12.77;61.38;100284.44;4897334;28;99506;-60
2021/10/30 05:55:33;;;;;;;;;;;;;;;12.76;61.39;100290.94;4883737;28;98310;-61
2021/10/30 05:57:59;;;;;;;;;;;;;;;12.74;61.49;100281.50;4891542;28;114932;-62
2021/10/30 06:00:25;;;;;;;;;;;;;;;12.73;61.55;100288.00;4898180;28;98448;-60
2021/10/30 06:02:51;;;;;;;;;;;;;;;12.71;61.43;100282.88;4880336;28;98149;-61
2021/10/30 06:05:17;;;;;;;;;;;;;;;12.71;61.31;100287.47;4897700;28;98110;-61
2021/10/30 06:07:43;;;;;;;;;;;;;;;12.70;61.11;100283.19;4890439;28;102852;-61
2021/10/30 06:10:09;;;;;;;;;;;;;;;12.69;61.29;100274.25;4897992;28;98628;-60
2021/10/30 06:12:39;;;;;;;;;;;;;;;12.68;61.42;100271.81;4892637;28;98942;-60
2021/10/30 06:15:06;;;;;;;;;;;;;;;12.66;61.20;100277.53;4897820;28;98767;-60
2021/10/30 06:17:32;;;;;;;;;;;;;;;12.67;61.20;100281.03;4878316;28;98384;-60
2021/10/30 06:19:58;;;;;;;;;;;;;;;12.66;61.31;100277.53;4894982;28;128174;-61
2021/10/30 06:22:24;;;;;;;;;;;;;;;12.66;61.31;100280.25;4894223;28;125990;-60
2021/10/30 06:24:50;;;;;;;;;;;;;;;12.65;61.25;100280.50;4887359;28;98650;-60
2021/10/30 06:27:16;;;;;;;;;;;;;;;12.65;61.18;100280.50;4879434;28;118520;-60
2021/10/30 06:29:42;;;;;;;;;;;;;;;12.64;61.49;100281.59;4897049;28;128869;-60
2021/10/30 06:32:07;;;;;;;;;;;;;;;12.64;61.35;100281.59;4860678;28;128503;-60
2021/10/30 06:34:34;;;;;;;;;;;;;;;12.65;61.26;100272.38;4881955;28;126984;-69
2021/10/30 06:37:00;;;;;;;;;;;;;;;12.67;61.32;100270.22;4898761;28;98100;-60
2021/10/30 06:39:26;;;;;;;;;;;;;;;12.67;61.11;100267.50;4889547;28;129560;-60
2021/10/30 06:41:52;;;;;;;;;;;;;;;12.69;61.06;100273.44;4897704;28;98647;-60
2021/10/30 06:44:19;;;;;;;;;;;;;;;12.68;61.12;100266.41;4888493;28;98441;-60
2021/10/30 06:46:45;;;;;;;;;;;;;;;12.70;61.14;100269.66;4879664;28;97959;-61
2021/10/30 06:49:12;;;;;;;;;;;;;;;12.72;61.17;100275.56;4896318;28;98153;-60
2021/10/30 06:51:39;;;;;;;;;;;;;;;12.73;61.46;100269.88;4888670;28;98941;-60
2021/10/30 06:54:06;;;;;;;;;;;;;;;12.73;61.23;100269.88;4889038;28;98794;-60
2021/10/30 06:56:36;;;;;;;;;;;;;;;12.77;61.05;100272.81;4893671;28;97877;-61
2021/10/30 06:59:03;;;;;;;;;;;;;;;12.80;61.16;100274.13;4898718;28;106348;-60
2021/10/30 07:01:29;;;;;;;;;;;;;;;12.82;61.14;100280.88;4886839;28;98804;-60
2021/10/30 07:03:55;;;;;;;;;;;;;;;12.87;61.17;100280.03;4887187;28;98547;-60
2021/10/30 07:06:23;;;;;;;;;;;;;;;12.90;61.04;100282.16;4893274;28;117153;-60
2021/10/30 07:08:49;;;;;;;;;;;;;;;12.94;61.19;100285.91;4894692;28;99048;-60
2021/10/30 07:11:15;;;;;;;;;;;;;;;12.96;61.03;100281.78;4897073;28;127862;-60
2021/10/30 07:13:41;;;;;;;;;;;;;;;13.00;60.90;100277.41;4865604;28;127962;-60
2021/10/30 07:16:09;;;;;;;;;;;;;;;13.04;60.95;100274.94;4885026;28;97827;-61
2021/10/30 07:18:35;;;;;;;;;;;;;;;13.08;60.85;100267.88;4897247;28;98303;-60
2021/10/30 07:21:01;;;;;;;;;;;;;;;13.16;60.69;100271.84;4897229;28;126514;-60
2021/10/30 07:23:27;;;;;;;;;;;;;;;13.22;60.78;100270.69;4895741;28;128090;-61
2021/10/30 07:25:53;;;;;;;;;;;;;;;13.32;60.53;100265.16;4882354;28;98155;-69
2021/10/30 07:28:19;;;;;;;;;;;;;;;13.39;60.48;100257.50;4878220;28;129515;-68
2021/10/30 07:30:44;;;;;;;;;;;;;;;13.48;60.58;100257.69;4887212;28;98772;-68
2021/10/30 07:33:10;;;;;;;;;;;;;;;13.57;60.37;100255.13;4888787;28;128370;-60
2021/10/30 07:35:36;;;;;;;;;;;;;;;13.70;60.33;100254.38;4898038;28;109959;-61
2021/10/30 07:38:02;;;;;;;;;;;;;;;13.84;59.98;100255.25;4890425;28;128057;-68
2021/10/30 07:40:31;;;;;;;;;;;;;;;13.96;59.65;100257.53;4883340;28;127230;-60
2021/10/30 07:42:58;;;;;;;;;;;;;;;14.10;59.48;100263.78;4888554;28;128804;-60
2021/10/30 07:45:24;;;;;;;;;;;;;;;14.29;59.62;100252.13;4893057;28;98036;-60
2021/10/30 07:47:50;;;;;;;;;;;;;;;14.47;59.02;100243.94;4880251;28;98507;-61
2021/10/30 07:50:16;;;;;;;;;;;;;;;14.88;58.23;100245.91;4890131;28;98295;-68
2021/10/30 07:52:42;;;;;;;;;;;;;;;15.37;57.67;100244.38;4892795;28;98416;-68
2021/10/30 07:55:08;;;;;;;;;;;;;;;15.82;56.87;100236.34;4893851;28;98117;-61
2021/10/30 07:57:35;;;;;;;;;;;;;;;16.28;56.00;100235.22;4895811;28;98442;-69
2021/10/30 08:00:00;;;;;;;;;;;;;;;16.74;55.48;100227.78;4877673;28;114559;-68
2021/10/30 08:02:26;;;;;;;;;;;;;;;17.27;54.79;100216.75;4874550;28;128163;-69
2021/10/30 08:04:52;;;;;;;;;;;;;;;18.03;53.41;100223.69;4899586;28;118016;-68
2021/10/30 08:07:18;;;;;;;;;;;;;;;18.87;52.12;100222.19;4899297;28;126772;-61
2021/10/30 08:09:44;;;;;;;;;;;;;;;19.69;50.87;100228.13;4892209;28;125189;-61
2021/10/30 08:12:10;;;;;;;;;;;;;;;20.18;50.37;100224.78;4895156;28;117360;-66
2021/10/30 08:14:36;;;;;;;;;;;;;;;20.38;50.28;100228.59;4895148;28;97882;-59
2021/10/30 08:17:02;;;;;;;;;;;;;;;21.07;49.38;100225.06;4892809;28;121686;-59
2021/10/30 08:19:28;;;;;;;;;;;;;;;21.58;48.91;100222.72;4874430;28;113956;-64
2021/10/30 08:21:54;;;;;;;;;;;;;;;21.85;49.08;100228.53;4899154;28;98928;-65
2021/10/30 08:24:20;;;;;;;;;;;;;;;22.07;49.19;100228.00;4884388;28;105620;-59
2021/10/30 08:26:46;;;;;;;;;;;;;;;22.45;49.04;100219.25;4891354;28;127567;-61
2021/10/30 08:29:12;;;;;;;;;;;;;;;22.97;48.62;100212.69;4899470;28;128277;-66
2021/10/30 08:31:38;;;;;;;;;;;;;;;23.63;47.97;100216.53;4899204;28;126419;-66
2021/10/30 08:34:04;;;;;;;;;;;;;;;24.39;46.83;100200.31;4893082;28;118410;-64
2021/10/30 08:36:30;;;;;;;;;;;;;;;24.95;46.32;100196.09;4896484;28;99142;-64
2021/10/30 08:38:56;;;;;;;;;;;;;;;25.28;46.18;100189.94;4878034;28;128344;-58
2021/10/30 08:41:22;;;;;;;;;;;;;;;25.44;46.29;100184.22;4899310;28;128311;-64
2021/10/30 08:43:48;;;;;;;;;;;;;;;25.45;46.83;100191.31;4892642;28;109491;-58
2021/10/30 08:46:15;;;;;;;;;;;;;;;25.47;47.18;100183.50;4895128;28;97930;-58
2021/10/30 08:48:40;;;;;;;;;;;;;;;25.53;47.48;100176.44;4898034;28;127486;-65
2021/10/30 08:51:06;;;;;;;;;;;;;;;25.63;47.71;100177.78;4895364;28;126270;-66
2021/10/30 08:53:32;;;;;;;;;;;;;;;25.78;47.67;100173.22;4892636;28;117695;-58
2021/10/30 08:56:02;;;;;;;;;;;;;;;25.92;47.55;100159.59;4898493;28;98355;-58
2021/10/30 08:58:28;;;;;;;;;;;;;;;26.07;47.57;100155.00;4895067;28;98607;-65
2021/10/30 09:00:57;;;;;;;;;;;;;;;26.26;47.28;100145.72;4900282;28;98319;-58
2021/10/30 09:03:23;;;;;;;;;;;;;;;26.51;47.16;100151.47;4899882;28;98144;-63
2021/10/30 09:05:56;;;;;;;;;;;;;;;26.84;46.49;100144.97;4895845;28;98283;-58
2021/10/30 09:08:26;;;;;;;;;;;;;;;27.19;46.13;100135.34;4894516;28;99386;-65
2021/10/30 09:11:08;;;;;;;;;;;;;;;27.39;46.18;100137.44;4899907;28;98108;-65
2021/10/30 09:13:34;;;;;;;;;;;;;;;27.46;46.04;100127.56;4883695;28;97933;-58
2021/10/30 09:16:00;;;;;;;;;;;;;;;27.55;46.29;100130.75;4891428;28;98941;-65
2021/10/30 09:18:29;;;;;;;;;;;;;;;27.65;46.39;100116.16;4896955;28;118884;-65
2021/10/30 09:21:03;;;;;;;;;;;;;;;27.76;46.26;100110.69;4899380;28;98961;-58
2021/10/30 09:23:30;;;;;;;;;;;;;;;27.90;46.35;100094.06;4894941;28;98025;-58
2021/10/30 09:26:09;;;;;;;;;;;;;;;28.01;46.07;100097.66;4891977;28;98027;-58
2021/10/30 09:28:37;;;;;;;;;;;;;;;28.17;46.14;100096.47;4884756;28;123991;-65
2021/10/30 09:31:07;;;;;;;;;;;;;;;28.26;46.20;100097.69;4899001;28;97910;-59
2021/10/30 09:33:55;;;;;;;;;;;;;;;28.28;46.12;100092.50;4890385;28;97873;-58
2021/10/30 09:36:22;;;;;;;;;;;;;;;28.28;45.76;100078.66;4898155;28;97913;-65
2021/10/30 09:38:53;;;;;;;;;;;;;;;28.29;45.92;100077.47;4894571;28;98385;-65
2021/10/30 09:41:26;;;;;;;;;;;;;;;28.27;45.56;100074.31;4900049;28;98467;-65
2021/10/30 09:44:06;;;;;;;;;;;;;;;28.22;45.82;100079.44;4877512;28;98306;-58
2021/10/30 09:46:37;;;;;;;;;;;;;;;28.08;45.81;100081.03;4898795;28;99366;-65
2021/10/30 09:49:29;;;;;;;;;;;;;;;27.91;45.75;100081.84;4899213;28;98934;-65
2021/10/30 09:52:08;;;;;;;;;;;;;;;27.69;45.82;100080.97;4899107;28;98506;-64
2021/10/30 09:54:41;;;;;;;;;;;;;;;27.48;45.62;100078.94;4896143;28;97980;-65
2021/10/30 09:57:13;;;;;;;;;;;;;;;27.24;45.63;100072.16;4894634;28;98368;-65
2021/10/30 09:59:45;;;;;;;;;;;;;;;27.00;45.62;100075.56;4892142;28;98631;-66
2021/10/30 10:02:11;;;;;;;;;;;;;;;26.77;45.81;100075.88;4884332;28;128436;-65
2021/10/30 10:04:38;;;;;;;;;;;;;;;26.59;46.04;100065.47;4875881;28;98679;-65
2021/10/30 10:07:08;;;;;;;;;;;;;;;26.45;45.81;100070.94;4892114;28;98489;-65
2021/10/30 10:09:35;;;;;;;;;;;;;;;26.34;45.63;100061.75;4881161;28;98753;-64
2021/10/30 10:12:01;;;;;;;;;;;;;;;26.26;45.25;100065.63;4897465;28;123268;-66
2021/10/30 10:14:27;;;;;;;;;;;;;;;26.22;45.08;100057.31;4865146;28;111817;-65
2021/10/30 10:16:53;;;;;;;;;;;;;;;26.21;44.60;100055.69;4876558;28;127404;-65
2021/10/30 10:19:20;;;;;;;;;;;;;;;26.28;44.46;100044.72;4900477;28;98119;-65
2021/10/30 10:21:47;;;;;;;;;;;;;;;26.51;43.81;100032.66;4898522;28;105317;-64
2021/10/30 10:24:15;;;;;;;;;;;;;;;27.03;42.81;100019.50;4892122;28;98151;-65
2021/10/30 10:26:53;;;;;;;;;;;;;;;27.68;42.02;100021.25;4880263;28;98292;-65
2021/10/30 10:29:37;;;;;;;;;;;;;;;28.42;40.59;100018.91;4888150;28;99015;-65
2021/10/30 10:32:08;;;;;;;;;;;;;;;29.16;39.54;100017.06;4891740;28;98369;-65
2021/10/30 10:34:36;;;;;;;;;;;;;;;29.97;38.64;100015.75;4885580;28;101246;-65
2021/10/30 10:37:11;;;;;;;;;;;;;;;30.50;37.62;100003.38;4889529;28;106251;-65
2021/10/30 10:39:40;;;;;;;;;;;;;;;30.73;37.34;99993.56;4896570;28;98563;-66
2021/10/30 10:42:15;;;;;;;;;;;;;;;30.68;37.73;99989.25;4879095;28;98883;-58
2021/10/30 10:44:41;;;;;;;;;;;;;;;30.50;37.92;99983.13;4887226;28;98207;-65
2021/10/30 10:47:29;;;;;;;;;;;;;;;30.23;38.02;99977.47;4896458;28;98139;-58
2021/10/30 10:50:06;;;;;;;;;;;;;;;29.89;38.41;99961.47;4893977;28;98978;-65
2021/10/30 10:52:31;;;;;;;;;;;;;;;29.48;38.95;99959.41;4894524;28;97877;-58
2021/10/30 10:55:03;;;;;;;;;;;;;;;28.95;39.44;99965.25;4881096;28;118737;-58
2021/10/30 10:57:33;;;;;;;;;;;;;;;28.31;40.12;99955.97;4892498;28;98161;-58
2021/10/30 11:00:06;;;;;;;;;;;;;;;27.77;40.84;99963.56;4894217;28;100335;-58
2021/10/30 11:02:33;;;;;;;;;;;;;;;27.33;41.05;99959.16;4894346;28;98527;-65
2021/10/30 11:05:08;;;;;;;;;;;;;;;26.98;41.34;99948.78;4888138;28;97774;-65
2021/10/30 11:07:38;;;;;;;;;;;;;;;26.65;41.61;99944.31;4893892;28;98414;-58
2021/10/30 11:10:08;;;;;;;;;;;;;;;26.38;41.94;99950.09;4878367;28;121212;-65
2021/10/30 11:12:34;;;;;;;;;;;;;;;26.14;42.19;99956.25;4876409;28;117676;-65
2021/10/30 11:15:08;;;;;;;;;;;;;;;25.92;42.58;99955.31;4880909;28;98000;-58
2021/10/30 11:17:47;;;;;;;;;;;;;;;25.69;42.86;99947.22;4897617;28;98274;-58
2021/10/30 11:20:16;;;;;;;;;;;;;;;25.45;42.99;99946.63;4898353;28;98125;-58
2021/10/30 11:23:02;;;;;;;;;;;;;;;25.27;43.31;99942.09;4892507;28;99308;-58
2021/10/30 11:25:31;;;;;;;;;;;;;;;25.06;43.26;99939.91;4886970;28;98267;-58
2021/10/30 11:27:58;;;;;;;;;;;;;;;24.87;43.68;99943.63;4882686;28;128244;-58
2021/10/30 11:30:37;;;;;;;;;;;;;;;24.69;43.80;99940.66;4883844;28;120979;-58
2021/10/30 11:33:23;;;;;;;;;;;;;;;24.49;43.85;99931.75;4893176;28;98527;-65
2021/10/30 11:36:02;;;;;;;;;;;;;;;24.29;44.40;99935.75;4887622;28;97893;-57
2021/10/30 11:38:39;;;;;;;;;;;;;;;24.07;44.51;99935.47;4898701;28;99116;-58
2021/10/30 11:41:29;;;;;;;;;;;;;;;23.90;44.71;99941.53;4895087;28;99369;-65
2021/10/30 11:44:01;;;;;;;;;;;;;;;23.69;44.95;99937.25;4892532;28;99792;-65
2021/10/30 11:46:27;;;;;;;;;;;;;;;23.52;45.32;99944.00;4901617;28;97990;-58
2021/10/30 11:48:56;;;;;;;;;;;;;;;23.37;45.47;99936.69;4898403;28;98625;-65
2021/10/30 11:51:31;;;;;;;;;;;;;;;23.20;45.70;99943.44;4900916;28;99138;-58
2021/10/30 11:53:57;;;;;;;;;;;;;;;23.03;46.01;99935.69;4892509;28;97909;-58
2021/10/30 11:56:27;;;;;;;;;;;;;;;22.89;46.26;99935.38;4890973;28;97993;-65
2021/10/30 11:58:55;;;;;;;;;;;;;;;22.74;46.50;99928.78;4894832;28;98583;-57
2021/10/30 12:01:24;;;;;;;;;;;;;;;22.62;46.74;99928.94;4901090;28;99074;-58
2021/10/30 12:03:56;;;;;;;;;;;;;;;22.49;46.82;99920.84;4893692;28;98061;-58
2021/10/30 12:06:22;;;;;;;;;;;;;;;22.35;46.89;99931.50;4898868;28;98041;-65
2021/10/30 12:08:48;;;;;;;;;;;;;;;22.22;46.91;99924.56;4894882;28;115729;-65
2021/10/30 12:11:14;;;;;;;;;;;;;;;22.09;46.96;99925.81;4901054;28;98495;-65
2021/10/30 12:13:48;;;;;;;;;;;;;;;21.98;47.15;99929.09;4898023;28;97997;-65
2021/10/30 12:16:14;;;;;;;;;;;;;;;21.84;47.26;99934.25;4898702;28;98053;-65
2021/10/30 12:18:41;;;;;;;;;;;;;;;21.74;47.54;99932.06;4893179;28;98345;-65
2021/10/30 12:21:09;;;;;;;;;;;;;;;21.64;47.51;99930.63;4899927;28;99187;-65
2021/10/30 12:24:02;;;;;;;;;;;;;;;21.53;47.67;99924.09;4898694;28;107938;-59
2021/10/30 12:26:33;;;;;;;;;;;;;;;21.42;47.84;99926.59;4898978;28;98260;-64
2021/10/30 12:29:15;;;;;;;;;;;;;;;21.31;47.90;99920.78;4899488;28;98455;-65
2021/10/30 12:31:41;;;;;;;;;;;;;;;21.21;47.97;99918.56;4892699;28;98994;-64
2021/10/30 12:34:16;;;;;;;;;;;;;;;21.12;47.97;99900.69;4892867;28;98188;-65
2021/10/30 12:36:42;;;;;;;;;;;;;;;21.05;47.90;99910.31;4873596;28;117760;-65